Hamburg, NY

7:16 AM EDT on September 27, 2016 (GMT -0400)
APRSWXNET | | Change Station

Elev 820 ft 42.71 °N, 78.83 °W | Updated 387 days ago

Partly Cloudy
Partly Cloudy
63 °F
Feels Like 63 °F
N
15
Wind Variable Wind from SSW
Gusts 22 mph

Today
High -- | Low -- °F
--% Chance of Precip.
Yesterday
High -- | Low -- °F
Precip. -- in
Pressure 29.87 in
Visibility 10.0 miles
Clouds Few 4100 ft
Mostly Cloudy 5500 ft
Overcast 7000 ft
Dew Point 46 °F
Humidity 53%
Rainfall in
Snow Depth Not available.
7:08 AM 7:02 PM
Waning Crescent, 12% visible
METAR KBUF 271054Z 23005KT 10SM -RA FEW041 BKN055 OVC070 12/08 A2987 RMK AO2 RAE01B22 SLP115 P0003 T01170083 $
Pressure 29.87 in
Visibility 10.0 miles
Clouds Few 4100 ft
Mostly Cloudy 5500 ft
Overcast 7000 ft
Dew Point 46 °F
Humidity 53%
Rainfall in
Snow Depth Not available.
7:08 AM 7:02 PM
Waning Crescent, 12% visible
METAR KBUF 271054Z 23005KT 10SM -RA FEW041 BKN055 OVC070 12/08 A2987 RMK AO2 RAE01B22 SLP115 P0003 T01170083 $

10-Day Weather Forecast

Almanac

Astronomy

Sep. 27, 2016 Rise Set
Actual Time
Civil Twilight
Nautical Twilight
Astronomical Twilight
Moon
Length of Visible Light
Length of Day
Tomorrow will be .
, % of the Moon is Illuminated

Today's Extremes

State Highs State Lows

Community

WunderPhotos

Upload Photos

1,942,058 photos uploaded!

WunderBlog® & News

Nearby

Air Quality

  Air Quality AQ Index Pollutant
Not available.

Snow Depth

Station Depth Elevation

Earthquake Activity

City Distance Mag. Time & Date
Minimum magnitude displayed is 2.5.

Coastal Water Temperatures

Place Temperature

Stations

Nearby Weather Stations

Station Location Temp. Windchill Dew Point Humidity Wind Precip. Elev Updated Type
                   

Watches & Warnings

There are currently no watches in effect.